sensor_id;sensor_type;location;lat;lon;timestamp;temperature;humidity
5176;DHT22;2607;50.934;6.934;2023-07-31T00:00:41;16.60;99.90
5176;DHT22;2607;50.934;6.934;2023-07-31T00:03:06;16.60;99.90
5176;DHT22;2607;50.934;6.934;2023-07-31T00:05:32;16.60;99.90
5176;DHT22;2607;50.934;6.934;2023-07-31T00:07:57;16.60;99.90
5176;DHT22;2607;50.934;6.934;2023-07-31T00:10:23;16.60;99.90
5176;DHT22;2607;50.934;6.934;2023-07-31T00:12:49;16.60;99.90
5176;DHT22;2607;50.934;6.934;2023-07-31T00:15:15;16.60;99.90
5176;DHT22;2607;50.934;6.934;2023-07-31T00:17:40;16.60;99.90
5176;DHT22;2607;50.934;6.934;2023-07-31T00:20:07;16.60;99.90
5176;DHT22;2607;50.934;6.934;2023-07-31T00:22:32;16.60;99.90
5176;DHT22;2607;50.934;6.934;2023-07-31T00:24:58;16.60;99.90
5176;DHT22;2607;50.934;6.934;2023-07-31T00:27:25;16.60;99.90
5176;DHT22;2607;50.934;6.934;2023-07-31T00:29:50;16.60;99.90
5176;DHT22;2607;50.934;6.934;2023-07-31T00:32:16;16.60;99.90
5176;DHT22;2607;50.934;6.934;2023-07-31T00:34:41;16.70;99.90
5176;DHT22;2607;50.934;6.934;2023-07-31T00:37:07;16.70;99.90
5176;DHT22;2607;50.934;6.934;2023-07-31T00:39:34;16.70;99.90
5176;DHT22;2607;50.934;6.934;2023-07-31T00:42:00;16.70;99.90
5176;DHT22;2607;50.934;6.934;2023-07-31T00:44:25;16.70;99.90
5176;DHT22;2607;50.934;6.934;2023-07-31T00:46:51;16.70;99.90
5176;DHT22;2607;50.934;6.934;2023-07-31T00:49:17;16.70;99.90
5176;DHT22;2607;50.934;6.934;2023-07-31T00:51:43;16.70;99.90
5176;DHT22;2607;50.934;6.934;2023-07-31T00:54:09;16.70;99.90
5176;DHT22;2607;50.934;6.934;2023-07-31T00:56:36;16.70;99.90
5176;DHT22;2607;50.934;6.934;2023-07-31T00:59:02;16.60;99.90
5176;DHT22;2607;50.934;6.934;2023-07-31T01:01:28;16.70;99.90
5176;DHT22;2607;50.934;6.934;2023-07-31T01:03:53;16.70;99.90
5176;DHT22;2607;50.934;6.934;2023-07-31T01:10:04;16.70;99.90
5176;DHT22;2607;50.934;6.934;2023-07-31T01:12:34;16.70;99.90
5176;DHT22;2607;50.934;6.934;2023-07-31T01:15:07;16.70;99.90
5176;DHT22;2607;50.934;6.934;2023-07-31T01:17:37;16.60;99.90
5176;DHT22;2607;50.934;6.934;2023-07-31T01:20:05;16.60;99.90
5176;DHT22;2607;50.934;6.934;2023-07-31T01:26:03;16.70;99.90
5176;DHT22;2607;50.934;6.934;2023-07-31T01:31:12;16.60;99.90
5176;DHT22;2607;50.934;6.934;2023-07-31T01:33:39;16.60;99.90
5176;DHT22;2607;50.934;6.934;2023-07-31T01:36:05;16.60;99.90
5176;DHT22;2607;50.934;6.934;2023-07-31T01:38:31;16.60;99.90
5176;DHT22;2607;50.934;6.934;2023-07-31T01:40:57;16.70;99.90
5176;DHT22;2607;50.934;6.934;2023-07-31T01:43:22;16.70;99.90
5176;DHT22;2607;50.934;6.934;2023-07-31T01:45:49;16.70;99.90
5176;DHT22;2607;50.934;6.934;2023-07-31T01:48:15;16.70;99.90
5176;DHT22;2607;50.934;6.934;2023-07-31T01:50:41;16.70;99.90
5176;DHT22;2607;50.934;6.934;2023-07-31T01:53:06;16.70;99.90
5176;DHT22;2607;50.934;6.934;2023-07-31T01:55:32;16.70;99.90
5176;DHT22;2607;50.934;6.934;2023-07-31T01:57:57;16.70;99.90
5176;DHT22;2607;50.934;6.934;2023-07-31T02:00:23;16.70;99.90
5176;DHT22;2607;50.934;6.934;2023-07-31T02:02:49;16.70;99.90
5176;DHT22;2607;50.934;6.934;2023-07-31T02:05:14;16.70;99.90
5176;DHT22;2607;50.934;6.934;2023-07-31T02:07:40;16.70;99.90
5176;DHT22;2607;50.934;6.934;2023-07-31T02:10:06;16.70;99.90
5176;DHT22;2607;50.934;6.934;2023-07-31T02:12:31;16.80;99.90
5176;DHT22;2607;50.934;6.934;2023-07-31T02:14:59;16.80;99.90
5176;DHT22;2607;50.934;6.934;2023-07-31T02:17:24;16.80;99.90
5176;DHT22;2607;50.934;6.934;2023-07-31T02:19:50;16.80;99.90
5176;DHT22;2607;50.934;6.934;2023-07-31T02:22:15;16.80;99.90
5176;DHT22;2607;50.934;6.934;2023-07-31T02:24:41;16.80;99.90
5176;DHT22;2607;50.934;6.934;2023-07-31T02:27:07;16.80;99.90
5176;DHT22;2607;50.934;6.934;2023-07-31T02:29:32;16.80;99.90
5176;DHT22;2607;50.934;6.934;2023-07-31T02:31:58;16.90;99.90
5176;DHT22;2607;50.934;6.934;2023-07-31T02:34:24;16.90;99.90
5176;DHT22;2607;50.934;6.934;2023-07-31T02:36:49;16.90;99.90
5176;DHT22;2607;50.934;6.934;2023-07-31T02:39:15;16.90;99.90
5176;DHT22;2607;50.934;6.934;2023-07-31T02:41:40;16.90;99.90
5176;DHT22;2607;50.934;6.934;2023-07-31T02:44:06;16.90;99.90
5176;DHT22;2607;50.934;6.934;2023-07-31T02:46:32;16.90;99.90
5176;DHT22;2607;50.934;6.934;2023-07-31T02:48:57;16.90;99.90
5176;DHT22;2607;50.934;6.934;2023-07-31T02:51:23;16.90;99.90
5176;DHT22;2607;50.934;6.934;2023-07-31T02:53:48;16.90;99.90
5176;DHT22;2607;50.934;6.934;2023-07-31T02:56:15;16.90;99.90
5176;DHT22;2607;50.934;6.934;2023-07-31T02:58:40;17.00;99.90
5176;DHT22;2607;50.934;6.934;2023-07-31T03:01:06;16.90;99.90
5176;DHT22;2607;50.934;6.934;2023-07-31T03:03:32;16.90;99.90
5176;DHT22;2607;50.934;6.934;2023-07-31T03:05:57;16.90;99.90
5176;DHT22;2607;50.934;6.934;2023-07-31T03:08:23;16.90;99.90
5176;DHT22;2607;50.934;6.934;2023-07-31T03:10:48;16.90;99.90
5176;DHT22;2607;50.934;6.934;2023-07-31T03:13:14;16.90;99.90
5176;DHT22;2607;50.934;6.934;2023-07-31T03:15:42;16.90;99.90
5176;DHT22;2607;50.934;6.934;2023-07-31T03:18:09;16.90;99.90
5176;DHT22;2607;50.934;6.934;2023-07-31T03:20:34;16.90;99.90
5176;DHT22;2607;50.934;6.934;2023-07-31T03:23:00;17.00;99.90
5176;DHT22;2607;50.934;6.934;2023-07-31T03:25:25;17.00;99.90
5176;DHT22;2607;50.934;6.934;2023-07-31T03:27:51;17.00;99.90
5176;DHT22;2607;50.934;6.934;2023-07-31T03:30:17;17.00;99.90
5176;DHT22;2607;50.934;6.934;2023-07-31T03:32:43;17.00;99.90
5176;DHT22;2607;50.934;6.934;2023-07-31T03:35:08;17.00;99.90
5176;DHT22;2607;50.934;6.934;2023-07-31T03:37:34;17.00;99.90
5176;DHT22;2607;50.934;6.934;2023-07-31T03:39:59;17.00;99.90
5176;DHT22;2607;50.934;6.934;2023-07-31T03:42:25;17.00;99.90
5176;DHT22;2607;50.934;6.934;2023-07-31T03:44:51;17.00;99.90
5176;DHT22;2607;50.934;6.934;2023-07-31T03:47:16;17.00;99.90
5176;DHT22;2607;50.934;6.934;2023-07-31T03:49:42;17.00;99.90
5176;DHT22;2607;50.934;6.934;2023-07-31T03:52:07;17.00;99.90
5176;DHT22;2607;50.934;6.934;2023-07-31T03:54:33;17.00;99.90
5176;DHT22;2607;50.934;6.934;2023-07-31T03:56:59;17.00;99.90
5176;DHT22;2607;50.934;6.934;2023-07-31T03:59:24;17.00;99.90
5176;DHT22;2607;50.934;6.934;2023-07-31T04:01:50;17.00;99.90
5176;DHT22;2607;50.934;6.934;2023-07-31T04:04:15;17.00;99.90
5176;DHT22;2607;50.934;6.934;2023-07-31T04:06:41;17.00;99.90
5176;DHT22;2607;50.934;6.934;2023-07-31T04:09:07;17.00;99.90
5176;DHT22;2607;50.934;6.934;2023-07-31T04:11:32;17.00;99.90
5176;DHT22;2607;50.934;6.934;2023-07-31T04:13:58;17.00;99.90
5176;DHT22;2607;50.934;6.934;2023-07-31T04:16:24;17.00;99.90
5176;DHT22;2607;50.934;6.934;2023-07-31T04:18:49;17.00;99.90
5176;DHT22;2607;50.934;6.934;2023-07-31T04:21:15;17.00;99.90
5176;DHT22;2607;50.934;6.934;2023-07-31T04:23:40;17.00;99.90
5176;DHT22;2607;50.934;6.934;2023-07-31T04:26:06;17.00;99.90
5176;DHT22;2607;50.934;6.934;2023-07-31T04:28:32;17.10;99.90
5176;DHT22;2607;50.934;6.934;2023-07-31T04:30:57;17.10;99.90
5176;DHT22;2607;50.934;6.934;2023-07-31T04:33:24;17.10;99.90
5176;DHT22;2607;50.934;6.934;2023-07-31T04:35:53;17.10;99.90
5176;DHT22;2607;50.934;6.934;2023-07-31T04:38:20;17.10;99.90
5176;DHT22;2607;50.934;6.934;2023-07-31T04:40:46;17.20;99.90
5176;DHT22;2607;50.934;6.934;2023-07-31T04:43:12;17.20;99.90
5176;DHT22;2607;50.934;6.934;2023-07-31T04:45:37;17.20;99.90
5176;DHT22;2607;50.934;6.934;2023-07-31T04:48:03;17.20;99.90
5176;DHT22;2607;50.934;6.934;2023-07-31T04:50:29;17.20;99.90
5176;DHT22;2607;50.934;6.934;2023-07-31T04:52:56;17.20;99.90
5176;DHT22;2607;50.934;6.934;2023-07-31T04:55:22;17.20;99.90
5176;DHT22;2607;50.934;6.934;2023-07-31T04:57:47;17.30;99.90
5176;DHT22;2607;50.934;6.934;2023-07-31T05:00:13;17.30;99.90
5176;DHT22;2607;50.934;6.934;2023-07-31T05:02:39;17.30;99.90
5176;DHT22;2607;50.934;6.934;2023-07-31T05:05:05;17.30;99.90
5176;DHT22;2607;50.934;6.934;2023-07-31T05:07:30;17.30;99.90
5176;DHT22;2607;50.934;6.934;2023-07-31T05:09:56;17.40;99.90
5176;DHT22;2607;50.934;6.934;2023-07-31T05:12:21;17.40;99.90
5176;DHT22;2607;50.934;6.934;2023-07-31T05:14:47;17.40;99.90
5176;DHT22;2607;50.934;6.934;2023-07-31T05:17:13;17.40;99.90
5176;DHT22;2607;50.934;6.934;2023-07-31T05:19:38;17.50;99.90
5176;DHT22;2607;50.934;6.934;2023-07-31T05:22:04;17.50;99.90
5176;DHT22;2607;50.934;6.934;2023-07-31T05:24:30;17.50;99.90
5176;DHT22;2607;50.934;6.934;2023-07-31T05:26:55;17.60;99.90
5176;DHT22;2607;50.934;6.934;2023-07-31T05:29:21;17.60;99.90
5176;DHT22;2607;50.934;6.934;2023-07-31T05:31:47;17.60;99.90
5176;DHT22;2607;50.934;6.934;2023-07-31T05:34:12;17.60;99.90
5176;DHT22;2607;50.934;6.934;2023-07-31T05:36:38;17.60;99.90
5176;DHT22;2607;50.934;6.934;2023-07-31T05:39:03;17.60;99.90
5176;DHT22;2607;50.934;6.934;2023-07-31T05:41:32;17.70;99.90
5176;DHT22;2607;50.934;6.934;2023-07-31T05:43:58;17.70;99.90
5176;DHT22;2607;50.934;6.934;2023-07-31T05:46:23;17.60;99.90
5176;DHT22;2607;50.934;6.934;2023-07-31T05:48:49;17.60;99.90
5176;DHT22;2607;50.934;6.934;2023-07-31T05:51:15;17.60;99.90
5176;DHT22;2607;50.934;6.934;2023-07-31T05:53:41;17.60;99.90
5176;DHT22;2607;50.934;6.934;2023-07-31T05:56:06;17.60;99.90
5176;DHT22;2607;50.934;6.934;2023-07-31T05:58:32;17.60;99.90
5176;DHT22;2607;50.934;6.934;2023-07-31T06:00:58;17.60;99.90
5176;DHT22;2607;50.934;6.934;2023-07-31T06:03:23;17.60;99.90
5176;DHT22;2607;50.934;6.934;2023-07-31T06:05:49;17.60;99.90
5176;DHT22;2607;50.934;6.934;2023-07-31T06:08:15;17.60;99.90
5176;DHT22;2607;50.934;6.934;2023-07-31T06:10:41;17.60;99.90
5176;DHT22;2607;50.934;6.934;2023-07-31T06:13:06;17.60;99.90
5176;DHT22;2607;50.934;6.934;2023-07-31T06:15:32;17.60;99.90
5176;DHT22;2607;50.934;6.934;2023-07-31T06:17:57;17.60;99.90
5176;DHT22;2607;50.934;6.934;2023-07-31T06:20:24;17.60;99.90
5176;DHT22;2607;50.934;6.934;2023-07-31T06:22:50;17.60;99.90
5176;DHT22;2607;50.934;6.934;2023-07-31T06:25:15;17.50;99.90
5176;DHT22;2607;50.934;6.934;2023-07-31T06:27:41;17.60;99.90
5176;DHT22;2607;50.934;6.934;2023-07-31T06:30:07;17.60;99.90
5176;DHT22;2607;50.934;6.934;2023-07-31T06:32:32;17.60;99.90
5176;DHT22;2607;50.934;6.934;2023-07-31T06:34:58;17.60;99.90
5176;DHT22;2607;50.934;6.934;2023-07-31T06:37:24;17.60;99.90
5176;DHT22;2607;50.934;6.934;2023-07-31T06:39:49;17.60;99.90
5176;DHT22;2607;50.934;6.934;2023-07-31T06:42:15;17.60;99.90
5176;DHT22;2607;50.934;6.934;2023-07-31T06:44:41;17.60;99.90
5176;DHT22;2607;50.934;6.934;2023-07-31T06:47:07;17.60;99.90
5176;DHT22;2607;50.934;6.934;2023-07-31T06:49:34;17.60;99.90
5176;DHT22;2607;50.934;6.934;2023-07-31T06:51:59;17.70;99.90
5176;DHT22;2607;50.934;6.934;2023-07-31T06:54:25;17.80;99.90
5176;DHT22;2607;50.934;6.934;2023-07-31T06:56:51;17.80;99.90
5176;DHT22;2607;50.934;6.934;2023-07-31T06:59:16;17.90;99.90
5176;DHT22;2607;50.934;6.934;2023-07-31T07:01:42;18.00;99.90
5176;DHT22;2607;50.934;6.934;2023-07-31T07:04:08;18.00;99.90
5176;DHT22;2607;50.934;6.934;2023-07-31T07:06:33;18.10;99.90
5176;DHT22;2607;50.934;6.934;2023-07-31T07:08:59;18.20;99.90
5176;DHT22;2607;50.934;6.934;2023-07-31T07:11:25;18.20;99.90
5176;DHT22;2607;50.934;6.934;2023-07-31T07:13:51;18.20;99.90
5176;DHT22;2607;50.934;6.934;2023-07-31T07:16:16;18.20;99.90
5176;DHT22;2607;50.934;6.934;2023-07-31T07:18:42;18.20;99.90
5176;DHT22;2607;50.934;6.934;2023-07-31T07:21:08;18.30;99.90
5176;DHT22;2607;50.934;6.934;2023-07-31T07:23:33;18.20;99.90
5176;DHT22;2607;50.934;6.934;2023-07-31T07:25:59;18.20;99.90
5176;DHT22;2607;50.934;6.934;2023-07-31T07:28:25;18.20;99.90
5176;DHT22;2607;50.934;6.934;2023-07-31T07:30:52;18.20;99.90
5176;DHT22;2607;50.934;6.934;2023-07-31T07:33:18;18.20;99.90
5176;DHT22;2607;50.934;6.934;2023-07-31T07:35:44;18.20;99.90
5176;DHT22;2607;50.934;6.934;2023-07-31T07:38:09;18.10;99.90
5176;DHT22;2607;50.934;6.934;2023-07-31T07:40:44;18.10;99.90
5176;DHT22;2607;50.934;6.934;2023-07-31T07:43:10;18.10;99.90
5176;DHT22;2607;50.934;6.934;2023-07-31T07:45:35;18.00;99.90
5176;DHT22;2607;50.934;6.934;2023-07-31T07:48:01;18.10;99.90
5176;DHT22;2607;50.934;6.934;2023-07-31T07:50:27;18.00;99.90
5176;DHT22;2607;50.934;6.934;2023-07-31T07:52:52;18.00;99.90
5176;DHT22;2607;50.934;6.934;2023-07-31T07:55:18;18.00;99.90
5176;DHT22;2607;50.934;6.934;2023-07-31T07:57:43;18.00;99.90
5176;DHT22;2607;50.934;6.934;2023-07-31T08:00:11;18.00;99.90
5176;DHT22;2607;50.934;6.934;2023-07-31T08:02:37;18.00;99.90
5176;DHT22;2607;50.934;6.934;2023-07-31T08:05:03;17.90;99.90
5176;DHT22;2607;50.934;6.934;2023-07-31T08:07:29;17.90;99.90
5176;DHT22;2607;50.934;6.934;2023-07-31T08:09:54;17.80;99.90
5176;DHT22;2607;50.934;6.934;2023-07-31T08:12:20;17.80;99.90
5176;DHT22;2607;50.934;6.934;2023-07-31T08:14:46;17.70;99.90
5176;DHT22;2607;50.934;6.934;2023-07-31T08:17:11;17.80;99.90
5176;DHT22;2607;50.934;6.934;2023-07-31T08:19:37;17.70;99.90
5176;DHT22;2607;50.934;6.934;2023-07-31T08:22:03;17.70;99.90
5176;DHT22;2607;50.934;6.934;2023-07-31T08:24:28;17.60;99.90
5176;DHT22;2607;50.934;6.934;2023-07-31T08:26:54;17.60;99.90
5176;DHT22;2607;50.934;6.934;2023-07-31T08:29:20;17.60;99.90
5176;DHT22;2607;50.934;6.934;2023-07-31T08:31:45;17.50;99.90
5176;DHT22;2607;50.934;6.934;2023-07-31T08:34:11;17.60;99.90
5176;DHT22;2607;50.934;6.934;2023-07-31T08:36:37;17.60;99.90
5176;DHT22;2607;50.934;6.934;2023-07-31T08:39:02;17.60;99.90
5176;DHT22;2607;50.934;6.934;2023-07-31T08:41:29;17.60;99.90
5176;DHT22;2607;50.934;6.934;2023-07-31T08:43:55;17.70;99.90
5176;DHT22;2607;50.934;6.934;2023-07-31T08:46:22;17.70;99.90
5176;DHT22;2607;50.934;6.934;2023-07-31T08:48:48;17.80;99.90
5176;DHT22;2607;50.934;6.934;2023-07-31T08:51:15;17.80;99.90
5176;DHT22;2607;50.934;6.934;2023-07-31T08:53:41;17.80;99.90
5176;DHT22;2607;50.934;6.934;2023-07-31T08:56:07;17.80;99.90
5176;DHT22;2607;50.934;6.934;2023-07-31T08:58:35;17.80;99.90
5176;DHT22;2607;50.934;6.934;2023-07-31T09:01:04;17.80;99.90
5176;DHT22;2607;50.934;6.934;2023-07-31T09:03:33;17.80;99.90
5176;DHT22;2607;50.934;6.934;2023-07-31T09:06:00;17.80;99.90
5176;DHT22;2607;50.934;6.934;2023-07-31T09:08:29;17.90;99.90
5176;DHT22;2607;50.934;6.934;2023-07-31T09:11:01;17.90;99.90
5176;DHT22;2607;50.934;6.934;2023-07-31T09:13:31;17.90;99.90
5176;DHT22;2607;50.934;6.934;2023-07-31T09:15:57;18.00;99.90
5176;DHT22;2607;50.934;6.934;2023-07-31T09:18:22;18.00;99.90
5176;DHT22;2607;50.934;6.934;2023-07-31T09:21:03;18.10;99.90
5176;DHT22;2607;50.934;6.934;2023-07-31T09:23:44;18.10;99.90
5176;DHT22;2607;50.934;6.934;2023-07-31T09:26:10;18.10;99.90
5176;DHT22;2607;50.934;6.934;2023-07-31T09:28:36;18.10;99.90
5176;DHT22;2607;50.934;6.934;2023-07-31T09:31:02;18.10;99.90
5176;DHT22;2607;50.934;6.934;2023-07-31T09:33:27;18.10;99.90
5176;DHT22;2607;50.934;6.934;2023-07-31T09:39:16;18.10;99.90
5176;DHT22;2607;50.934;6.934;2023-07-31T09:41:43;18.10;99.90
5176;DHT22;2607;50.934;6.934;2023-07-31T09:44:10;18.20;99.90
5176;DHT22;2607;50.934;6.934;2023-07-31T09:46:36;18.20;99.90
5176;DHT22;2607;50.934;6.934;2023-07-31T09:49:13;18.30;99.90
5176;DHT22;2607;50.934;6.934;2023-07-31T09:51:40;18.40;99.90
5176;DHT22;2607;50.934;6.934;2023-07-31T09:54:14;18.40;99.90
5176;DHT22;2607;50.934;6.934;2023-07-31T09:56:45;18.50;99.90
5176;DHT22;2607;50.934;6.934;2023-07-31T09:59:18;18.50;99.90
5176;DHT22;2607;50.934;6.934;2023-07-31T10:01:46;18.60;99.90
5176;DHT22;2607;50.934;6.934;2023-07-31T10:04:13;18.60;99.90
5176;DHT22;2607;50.934;6.934;2023-07-31T10:06:40;18.60;99.90
5176;DHT22;2607;50.934;6.934;2023-07-31T10:15:59;18.80;99.90
5176;DHT22;2607;50.934;6.934;2023-07-31T10:28:34;18.80;99.90
5176;DHT22;2607;50.934;6.934;2023-07-31T10:31:03;18.70;99.90
5176;DHT22;2607;50.934;6.934;2023-07-31T10:33:29;18.70;99.90
5176;DHT22;2607;50.934;6.934;2023-07-31T10:36:15;18.70;99.90
5176;DHT22;2607;50.934;6.934;2023-07-31T10:38:42;18.70;99.90
5176;DHT22;2607;50.934;6.934;2023-07-31T10:41:08;18.70;99.90
5176;DHT22;2607;50.934;6.934;2023-07-31T10:43:34;18.80;99.90
5176;DHT22;2607;50.934;6.934;2023-07-31T10:46:06;18.80;99.90
5176;DHT22;2607;50.934;6.934;2023-07-31T10:48:34;18.80;99.90
5176;DHT22;2607;50.934;6.934;2023-07-31T10:51:00;18.80;99.90
5176;DHT22;2607;50.934;6.934;2023-07-31T10:53:32;18.80;99.90
5176;DHT22;2607;50.934;6.934;2023-07-31T10:56:09;18.80;99.90
5176;DHT22;2607;50.934;6.934;2023-07-31T10:58:37;18.70;99.90
5176;DHT22;2607;50.934;6.934;2023-07-31T11:01:05;18.80;99.90
5176;DHT22;2607;50.934;6.934;2023-07-31T11:03:47;18.80;99.90
5176;DHT22;2607;50.934;6.934;2023-07-31T11:06:15;18.90;99.90
5176;DHT22;2607;50.934;6.934;2023-07-31T11:08:48;18.90;99.90
5176;DHT22;2607;50.934;6.934;2023-07-31T11:11:18;18.90;99.90
5176;DHT22;2607;50.934;6.934;2023-07-31T11:13:48;18.90;99.90
5176;DHT22;2607;50.934;6.934;2023-07-31T11:16:25;18.90;99.90
5176;DHT22;2607;50.934;6.934;2023-07-31T11:18:51;18.80;99.90
5176;DHT22;2607;50.934;6.934;2023-07-31T11:21:20;18.80;99.90
5176;DHT22;2607;50.934;6.934;2023-07-31T11:23:51;18.80;99.90
5176;DHT22;2607;50.934;6.934;2023-07-31T11:26:17;18.80;99.90
5176;DHT22;2607;50.934;6.934;2023-07-31T11:28:46;18.80;99.90
5176;DHT22;2607;50.934;6.934;2023-07-31T11:31:12;18.90;99.90
5176;DHT22;2607;50.934;6.934;2023-07-31T11:33:38;18.90;99.90
5176;DHT22;2607;50.934;6.934;2023-07-31T11:36:04;19.00;99.90
5176;DHT22;2607;50.934;6.934;2023-07-31T11:38:31;19.00;99.90
5176;DHT22;2607;50.934;6.934;2023-07-31T11:41:02;19.20;99.90
5176;DHT22;2607;50.934;6.934;2023-07-31T11:43:29;19.30;99.90
5176;DHT22;2607;50.934;6.934;2023-07-31T11:45:55;19.30;99.90
5176;DHT22;2607;50.934;6.934;2023-07-31T11:48:29;19.40;99.90
5176;DHT22;2607;50.934;6.934;2023-07-31T11:50:59;19.50;99.90
5176;DHT22;2607;50.934;6.934;2023-07-31T11:53:36;19.60;99.90
5176;DHT22;2607;50.934;6.934;2023-07-31T11:56:04;19.60;99.90
5176;DHT22;2607;50.934;6.934;2023-07-31T11:58:31;19.60;99.90
5176;DHT22;2607;50.934;6.934;2023-07-31T12:00:59;19.60;99.90
5176;DHT22;2607;50.934;6.934;2023-07-31T12:03:25;19.50;99.90
5176;DHT22;2607;50.934;6.934;2023-07-31T12:05:53;19.50;99.90
5176;DHT22;2607;50.934;6.934;2023-07-31T12:08:21;19.40;99.90
5176;DHT22;2607;50.934;6.934;2023-07-31T12:10:47;19.40;99.90
5176;DHT22;2607;50.934;6.934;2023-07-31T12:13:26;19.30;99.90
5176;DHT22;2607;50.934;6.934;2023-07-31T12:15:56;19.30;99.90
5176;DHT22;2607;50.934;6.934;2023-07-31T12:18:24;19.20;99.90
5176;DHT22;2607;50.934;6.934;2023-07-31T12:20:57;19.30;99.90
5176;DHT22;2607;50.934;6.934;2023-07-31T12:23:28;19.30;99.90
5176;DHT22;2607;50.934;6.934;2023-07-31T12:26:02;19.30;99.90
5176;DHT22;2607;50.934;6.934;2023-07-31T12:28:28;19.30;99.90
5176;DHT22;2607;50.934;6.934;2023-07-31T12:30:57;19.20;99.90
5176;DHT22;2607;50.934;6.934;2023-07-31T12:33:33;19.30;99.90
5176;DHT22;2607;50.934;6.934;2023-07-31T12:36:02;19.30;99.90
5176;DHT22;2607;50.934;6.934;2023-07-31T12:38:28;19.30;99.90
5176;DHT22;2607;50.934;6.934;2023-07-31T12:40:53;19.20;99.90
5176;DHT22;2607;50.934;6.934;2023-07-31T12:43:19;19.30;99.90
5176;DHT22;2607;50.934;6.934;2023-07-31T12:45:44;19.30;99.90
5176;DHT22;2607;50.934;6.934;2023-07-31T12:48:10;19.40;99.90
5176;DHT22;2607;50.934;6.934;2023-07-31T12:50:36;19.40;99.90
5176;DHT22;2607;50.934;6.934;2023-07-31T12:53:02;19.40;99.90
5176;DHT22;2607;50.934;6.934;2023-07-31T12:55:29;19.40;99.90
5176;DHT22;2607;50.934;6.934;2023-07-31T12:57:55;19.40;99.90
5176;DHT22;2607;50.934;6.934;2023-07-31T13:00:21;19.40;99.90
5176;DHT22;2607;50.934;6.934;2023-07-31T13:02:46;19.40;99.90
5176;DHT22;2607;50.934;6.934;2023-07-31T13:05:12;19.40;99.90
5176;DHT22;2607;50.934;6.934;2023-07-31T13:07:39;19.40;99.90
5176;DHT22;2607;50.934;6.934;2023-07-31T13:10:05;19.40;99.90
5176;DHT22;2607;50.934;6.934;2023-07-31T13:12:30;19.50;99.90
5176;DHT22;2607;50.934;6.934;2023-07-31T13:14:56;19.60;99.90
5176;DHT22;2607;50.934;6.934;2023-07-31T13:17:22;19.60;99.90
5176;DHT22;2607;50.934;6.934;2023-07-31T13:19:47;19.70;99.90
5176;DHT22;2607;50.934;6.934;2023-07-31T13:22:13;19.60;99.90
5176;DHT22;2607;50.934;6.934;2023-07-31T13:24:38;19.60;99.90
5176;DHT22;2607;50.934;6.934;2023-07-31T13:27:04;19.70;99.90
5176;DHT22;2607;50.934;6.934;2023-07-31T13:29:30;19.70;99.90
5176;DHT22;2607;50.934;6.934;2023-07-31T13:31:55;19.70;99.90
5176;DHT22;2607;50.934;6.934;2023-07-31T13:34:21;19.80;99.90
5176;DHT22;2607;50.934;6.934;2023-07-31T13:36:46;19.80;99.90
5176;DHT22;2607;50.934;6.934;2023-07-31T13:39:12;19.90;99.90
5176;DHT22;2607;50.934;6.934;2023-07-31T13:41:38;19.90;99.90
5176;DHT22;2607;50.934;6.934;2023-07-31T13:44:03;20.00;99.90
5176;DHT22;2607;50.934;6.934;2023-07-31T13:46:29;20.00;99.90
5176;DHT22;2607;50.934;6.934;2023-07-31T13:48:54;20.00;99.90
5176;DHT22;2607;50.934;6.934;2023-07-31T13:51:21;20.10;99.90
5176;DHT22;2607;50.934;6.934;2023-07-31T13:53:47;20.20;99.90
5176;DHT22;2607;50.934;6.934;2023-07-31T13:56:13;20.20;99.90
5176;DHT22;2607;50.934;6.934;2023-07-31T13:58:39;20.30;99.90
5176;DHT22;2607;50.934;6.934;2023-07-31T14:01:04;20.40;99.90
5176;DHT22;2607;50.934;6.934;2023-07-31T14:03:30;20.40;99.90
5176;DHT22;2607;50.934;6.934;2023-07-31T14:05:56;20.50;99.90
5176;DHT22;2607;50.934;6.934;2023-07-31T14:08:22;20.60;99.90
5176;DHT22;2607;50.934;6.934;2023-07-31T14:10:47;20.60;99.90
5176;DHT22;2607;50.934;6.934;2023-07-31T14:13:13;20.60;99.90
5176;DHT22;2607;50.934;6.934;2023-07-31T14:15:42;20.70;99.90
5176;DHT22;2607;50.934;6.934;2023-07-31T14:18:09;20.70;99.90
5176;DHT22;2607;50.934;6.934;2023-07-31T14:20:34;20.70;99.90
5176;DHT22;2607;50.934;6.934;2023-07-31T14:23:00;20.80;99.90
5176;DHT22;2607;50.934;6.934;2023-07-31T14:25:26;20.70;99.90
5176;DHT22;2607;50.934;6.934;2023-07-31T14:27:52;20.50;99.90
5176;DHT22;2607;50.934;6.934;2023-07-31T14:30:17;20.40;99.90
5176;DHT22;2607;50.934;6.934;2023-07-31T14:32:44;20.30;99.90
5176;DHT22;2607;50.934;6.934;2023-07-31T14:35:09;20.20;99.90
5176;DHT22;2607;50.934;6.934;2023-07-31T14:37:42;20.10;99.90
5176;DHT22;2607;50.934;6.934;2023-07-31T14:40:10;20.00;99.90
5176;DHT22;2607;50.934;6.934;2023-07-31T14:42:36;19.90;99.90
5176;DHT22;2607;50.934;6.934;2023-07-31T14:45:05;19.80;99.90
5176;DHT22;2607;50.934;6.934;2023-07-31T14:47:31;19.70;99.90
5176;DHT22;2607;50.934;6.934;2023-07-31T14:50:00;19.80;99.90
5176;DHT22;2607;50.934;6.934;2023-07-31T14:52:26;19.70;99.90
5176;DHT22;2607;50.934;6.934;2023-07-31T14:54:52;19.70;99.90
5176;DHT22;2607;50.934;6.934;2023-07-31T14:57:17;19.70;99.90
5176;DHT22;2607;50.934;6.934;2023-07-31T14:59:44;19.70;99.90
5176;DHT22;2607;50.934;6.934;2023-07-31T15:02:10;19.70;99.90
5176;DHT22;2607;50.934;6.934;2023-07-31T15:04:36;19.70;99.90
5176;DHT22;2607;50.934;6.934;2023-07-31T15:07:02;19.70;99.90
5176;DHT22;2607;50.934;6.934;2023-07-31T15:09:27;19.70;99.90
5176;DHT22;2607;50.934;6.934;2023-07-31T15:11:53;19.70;99.90
5176;DHT22;2607;50.934;6.934;2023-07-31T15:14:19;19.70;99.90
5176;DHT22;2607;50.934;6.934;2023-07-31T15:16:45;19.70;99.90
5176;DHT22;2607;50.934;6.934;2023-07-31T15:19:10;19.60;99.90
5176;DHT22;2607;50.934;6.934;2023-07-31T15:21:39;19.60;99.90
5176;DHT22;2607;50.934;6.934;2023-07-31T15:24:05;19.60;99.90
5176;DHT22;2607;50.934;6.934;2023-07-31T15:26:30;19.70;99.90
5176;DHT22;2607;50.934;6.934;2023-07-31T15:29:04;19.70;99.90
5176;DHT22;2607;50.934;6.934;2023-07-31T15:31:40;19.70;99.90
5176;DHT22;2607;50.934;6.934;2023-07-31T15:34:06;19.60;99.90
5176;DHT22;2607;50.934;6.934;2023-07-31T15:36:32;19.60;99.90
5176;DHT22;2607;50.934;6.934;2023-07-31T15:38:58;19.60;99.90
5176;DHT22;2607;50.934;6.934;2023-07-31T15:41:23;19.50;99.90
5176;DHT22;2607;50.934;6.934;2023-07-31T15:43:49;19.50;99.90
5176;DHT22;2607;50.934;6.934;2023-07-31T15:46:14;19.50;99.90
5176;DHT22;2607;50.934;6.934;2023-07-31T15:48:40;19.50;99.90
5176;DHT22;2607;50.934;6.934;2023-07-31T15:51:06;19.40;99.90
5176;DHT22;2607;50.934;6.934;2023-07-31T15:53:31;19.40;99.90
5176;DHT22;2607;50.934;6.934;2023-07-31T15:55:57;19.40;99.90
5176;DHT22;2607;50.934;6.934;2023-07-31T15:58:23;19.40;99.90
5176;DHT22;2607;50.934;6.934;2023-07-31T16:00:48;19.30;99.90
5176;DHT22;2607;50.934;6.934;2023-07-31T16:03:14;19.30;99.90
5176;DHT22;2607;50.934;6.934;2023-07-31T16:05:40;19.20;99.90
5176;DHT22;2607;50.934;6.934;2023-07-31T16:08:07;19.20;99.90
5176;DHT22;2607;50.934;6.934;2023-07-31T16:10:32;19.10;99.90
5176;DHT22;2607;50.934;6.934;2023-07-31T16:12:58;19.10;99.90
5176;DHT22;2607;50.934;6.934;2023-07-31T16:15:23;19.00;99.90
5176;DHT22;2607;50.934;6.934;2023-07-31T16:17:49;19.00;99.90
5176;DHT22;2607;50.934;6.934;2023-07-31T16:20:14;19.00;99.90
5176;DHT22;2607;50.934;6.934;2023-07-31T16:22:40;19.00;99.90
5176;DHT22;2607;50.934;6.934;2023-07-31T16:25:09;19.00;99.90
5176;DHT22;2607;50.934;6.934;2023-07-31T16:27:35;19.00;99.90